Tuesday, February 20, 2018, 9:19 AM GMT
Back to Local

CWBK, Caribou Point Meteorological Aeronautical Presentation System

Location: , , Canada Lat: 45.767
Local Time: 9:19 AM GMT ( 9:19 GMT) Lon: -62.683
Time Zone: GMT Elev: 6 ft

Show me the last for .
Show Decoded

2018-02-20 09:00 METAR CWBK 200900Z AUTO 20004KT 02/01 RMK AO1 3PAST HR SOG 13 6019 SLP252 P0001
                 T00210012 50013 =
2018-02-20 08:00 METAR CWBK 200800Z AUTO 21005KT 02/01 RMK AO1 0PAST HR SOG 13 6019 SLP256 P0004
                 T00220011 50010 =
2018-02-20 07:00 METAR CWBK 200700Z AUTO 21006KT 02/M00 RMK AO1 SOG 13 8019 SLP259 T00201004 =
2018-02-20 06:00 METAR CWBK 200600Z AUTO 21008KT 03/M00 RMK AO1 SOG 14 6015 PK WND 23017/0524
                 SLP271 T00271002 =
2018-02-20 05:00 METAR CWBK 200500Z AUTO 21008G15KT 02/M01 RMK AO1 SOG 14 6016 SLP275 T00151010 =
2018-02-20 04:00 METAR CWBK 200400Z AUTO 21008G17KT 02/M02 RMK AO1 SOG 14 8015 PK WND 20017/0354
                 SLP278 T00181017 =
2018-02-20 03:00 METAR CWBK 200300Z AUTO 20006KT 01/M02 RMK AO1 SOG 14 6021 SLP286 T00081023 =
2018-02-20 02:00 METAR CWBK 200200Z AUTO 21004KT M00/M03 RMK AO1 SOG 14 8012 SLP291 T10011030 =
2018-02-20 01:00 METAR CWBK 200100Z AUTO 19011G16KT M00/M03 RMK AO1 SOG 14 8015 SLP293 T10011031
                 =
2018-02-20 00:00 METAR CWBK 200000Z AUTO 21005KT M00/M04 RMK AO1 SOG 13 5004 SLP307 T10011036 =
2018-02-19 23:00 METAR CWBK 192300Z AUTO 21006KT 01/M04 RMK AO1 SOG 13 8011 SLP303 T00091035 =
2018-02-19 22:00 METAR CWBK 192200Z AUTO 21008G17KT 02/M04 RMK AO1 SOG 14 6013 PK WND 24017/2108
                 SLP308 T00181038 =
2018-02-19 21:00 METAR CWBK 192100Z AUTO 22012G18KT 03/M05 RMK AO1 SOG 14 6018 PK WND 21019/2045
                 SLP311 T00291048 =
2018-02-19 20:00 METAR CWBK 192000Z AUTO 22011G18KT 04/M06 RMK AO1 SOG 14 6026 PK WND 24019/1931
                 SLP314 T00391061 =
2018-02-19 19:00 METAR CWBK 191900Z AUTO 21009G15KT 04/M05 RMK AO1 SOG 14 6033 PK WND 22018/1841
                 SLP321 T00411048 =
2018-02-19 18:00 METAR CWBK 191800Z AUTO 21007KT 04/M06 RMK AO1 SOG 13 8029 PK WND 22017/1742
                 SLP329 T00411064 50009 =
2018-02-19 17:00 METAR CWBK 191700Z AUTO 21006KT 04/M06 RMK AO1 SOG 15 8018 SLP340 T00371057
                 50009 =
2018-02-19 16:00 METAR CWBK 191600Z AUTO 24004KT 03/M06 RMK AO1 2PAST HR SOG 14 8003 SLP354 P0001
                 T00301057 50009 =
2018-02-19 15:00 METAR CWBK 191500Z AUTO 10004KT M01/M05 RMK AO1 7PAST HR SOG 15 1009 SLP358
                 P0003 T10091049 50007 =
2018-02-19 14:00 METAR CWBK 191400Z AUTO 21001KT M00/M05 RMK AO1 SOG 15 1020 SLP358 T10011052 =
2018-02-19 13:00 METAR CWBK 191300Z AUTO 23002KT M03/M06 RMK AO1 SOG 15 3025 SLP357 T10291062 =
2018-02-19 12:00 METAR CWBK 191200Z AUTO 20004KT M05/M06 RMK AO1 SOG 15 3025 SLP349 T10461060 =
2018-02-19 11:00 METAR CWBK 191100Z AUTO 22004KT M06/M07 RMK AO1 SOG 15 1022 SLP338 T10581069 =
2018-02-19 10:00 METAR CWBK 191000Z AUTO 23003KT M05/M06 RMK AO1 SOG 15 3022 SLP332 T10531064 =

Support USWX by starting your Amazon purchase here.